Danville Regional Airport
KDAN : now visible

Airfield :











YOU CAN JOIN US ON...

 
LOGIN :

Register | Disclaimer

   EN    FR    IT 

 









Legend :    VFR   Marginal VFR   IFR   Intensive IFR   Very Intensive IFR
Visi :
Ceiling :
>= 8 km
>= 3000ft
5 to 8 km
1000 to 3000 ft
1500m to 5 km
500 to 1000 ft
800 to 1500m
200 to 500 ft
< 800m
< 200 ft
Symbols :   Thunderstorms  Fog  Heavy snow  Heavy precipitations  Wind > 20 kt






- Airport Elevation : 571 ft
- IATA code : DAN


KDAN - Danville Regional

CURRENT METAR :
  • 211953Z AUTO 33019G28KT 10SM CLR 15/M01 A2984 RMK AO2 PK WND 32028/1951 SLP097 T01501006

EXPIRED METARs :
  • 211853Z AUTO 31014G27KT 10SM CLR 17/01 A2983 RMK AO2 PK WND 33028/1804 SLP093 T01670011
  • 211753Z AUTO 29018G22KT 10SM FEW055 18/04 A2981 RMK AO2 SLP087 T01830039 10217 20117 53016

TAF KDAN
Valid from the 21 at 18:00 until the 22 at 18:00 UTC


211739Z 2118/2218 32016G24KT P6SM FEW060
FM220200 30007KT P6SM SKC
FM221600 29012G22KT P6SM FEW100
KZDC FIR / North America



MET'MAP, your aeronautical weather chart ! - Copyright ORBIFLY December 2007 - Disclaimer

ORBIFLY MET'MAP TEAM :

Programming & Development : Alexandra Zaïnal
Concept & original design : Baudouin d'Aumeries
Assistance for programming : Marc-Olivier Méhu
Technical & hardware support : Manuel Goepfert

Contact : metmap@orbifly.com




SOURCES & CREDITS :

   NOAA       Earth
Advisory